Time;durP1;ratioP1;P1;durP2;ratioP2;P2;SDS_P1;SDS_P2;PMS_P1;PMS_P2;Temp;Humidity;BMP_temperature;BMP_pressure;BME280_temperature;BME280_humidity;BME280_pressure;Samples;Min_cycle;Max_cycle;Signal;HPM_P1;HPM_P2
2023/06/30 00:00:25;;;;;;;6.80;2.13;;;;;;;16.83;100.00;100616.28;5000025;28;20049;-73
2023/06/30 00:02:51;;;;;;;4.15;2.10;;;;;;;16.70;100.00;100597.41;4997963;28;20034;-73
2023/06/30 00:05:17;;;;;;;4.45;1.83;;;;;;;16.70;100.00;100597.41;4981664;28;20037;-73
2023/06/30 00:07:42;;;;;;;4.22;1.50;;;;;;;16.78;100.00;100589.09;4998812;28;20460;-73
2023/06/30 00:10:09;;;;;;;3.17;1.63;;;;;;;16.83;100.00;100597.41;5000438;28;20407;-73
2023/06/30 00:12:34;;;;;;;2.85;1.55;;;;;;;16.70;100.00;100597.41;5018346;28;20068;-73
2023/06/30 00:15:00;;;;;;;6.27;1.90;;;;;;;16.65;100.00;100601.53;5017885;28;20037;-73
2023/06/30 00:17:25;;;;;;;5.20;2.47;;;;;;;16.53;100.00;100596.94;5019713;28;20029;-73
2023/06/30 00:19:51;;;;;;;5.73;1.90;;;;;;;16.48;100.00;100600.25;5019987;28;20049;-73
2023/06/30 00:22:19;;;;;;;4.50;1.58;;;;;;;16.46;100.00;100610.44;5018260;28;20080;-73
2023/06/30 00:24:47;;;;;;;5.85;1.92;;;;;;;16.49;100.00;100618.09;5020090;28;20437;-73
2023/06/30 00:27:12;;;;;;;2.55;1.60;;;;;;;16.40;100.00;100614.75;5011876;28;20036;-73
2023/06/30 00:29:37;;;;;;;4.97;2.00;;;;;;;16.56;100.00;100635.09;5004453;28;20049;-73
2023/06/30 00:32:03;;;;;;;13.47;1.97;;;;;;;16.61;100.00;100627.22;5016875;28;20044;-73
2023/06/30 00:34:28;;;;;;;5.15;2.42;;;;;;;16.66;100.00;100626.63;5002386;28;20226;-73
2023/06/30 00:36:54;;;;;;;4.70;1.93;;;;;;;16.61;100.00;100623.72;5014707;28;20044;-73
2023/06/30 00:39:19;;;;;;;3.00;1.57;;;;;;;16.58;100.00;100624.13;5018715;28;20030;-73
2023/06/30 00:41:44;;;;;;;5.43;1.80;;;;;;;16.65;100.00;100622.28;5021573;28;20112;-73
2023/06/30 00:44:10;;;;;;;2.93;1.50;;;;;;;16.64;100.00;100618.72;5017300;28;20506;-73
2023/06/30 00:46:35;;;;;;;6.50;1.90;;;;;;;16.64;100.00;100612.50;5021402;28;20438;-73
2023/06/30 00:49:01;;;;;;;4.43;1.75;;;;;;;16.59;100.00;100612.31;5018375;28;20529;-73
2023/06/30 00:51:26;;;;;;;5.70;2.33;;;;;;;16.64;100.00;100620.59;5015745;28;20115;-73
2023/06/30 00:53:52;;;;;;;9.37;2.23;;;;;;;16.68;100.00;100632.63;4982203;28;20049;-73
2023/06/30 00:56:17;;;;;;;4.23;1.70;;;;;;;16.54;100.00;100614.78;5018365;28;20064;-73
2023/06/30 00:58:44;;;;;;;6.97;2.42;;;;;;;16.64;100.00;100626.81;5015995;28;20029;-73
2023/06/30 01:01:28;;;;;;;9.93;2.23;;;;;;;16.68;100.00;100633.47;5016707;28;20071;-73
2023/06/30 01:04:36;;;;;;;10.23;2.40;;;;;;;16.60;100.00;100620.19;5008522;28;20067;-73
2023/06/30 01:07:22;;;;;;;5.85;2.45;;;;;;;16.49;100.00;100630.75;5013883;28;20296;-73
2023/06/30 01:09:53;;;;;;;8.13;2.10;;;;;;;16.57;100.00;100646.72;5013991;28;20089;-73
2023/06/30 01:12:19;;;;;;;9.63;1.83;;;;;;;16.54;100.00;100641.75;4994561;28;20034;-73
2023/06/30 01:14:47;;;;;;;4.53;1.80;;;;;;;16.47;100.00;100633.63;5017956;28;20064;-73
2023/06/30 01:17:15;;;;;;;7.15;3.05;;;;;;;16.45;100.00;100631.13;5004699;28;20037;-73
2023/06/30 01:19:44;;;;;;;5.65;2.38;;;;;;;16.38;100.00;100616.81;5020353;28;20021;-73
2023/06/30 01:22:22;;;;;;;6.10;2.45;;;;;;;16.34;100.00;100629.06;4995285;28;20029;-73
2023/06/30 01:24:51;;;;;;;7.30;2.33;;;;;;;16.33;100.00;100640.03;4999784;28;20069;-73
2023/06/30 01:27:16;;;;;;;7.07;2.15;;;;;;;16.34;100.00;100637.13;5014307;28;20029;-73
2023/06/30 01:29:42;;;;;;;8.13;1.55;;;;;;;16.36;100.00;100645.00;5017449;28;20029;-73
2023/06/30 01:32:08;;;;;;;7.20;1.85;;;;;;;16.35;100.00;100641.47;4995136;28;20501;-73
2023/06/30 01:34:34;;;;;;;;;;;;;;;16.38;100.00;100645.63;4998417;28;20136;-73
2023/06/30 01:37:00;;;;;;;9.00;2.13;;;;;;;16.41;100.00;100651.47;5017563;28;19916;-73
2023/06/30 01:39:26;;;;;;;7.27;1.87;;;;;;;16.46;100.00;100654.38;5014252;28;20038;-73
2023/06/30 01:41:52;;;;;;;6.37;1.77;;;;;;;16.36;100.00;100650.38;5014600;28;20105;-74
2023/06/30 01:44:18;;;;;;;8.48;2.72;;;;;;;16.33;100.00;100648.94;5016813;28;20041;-73
2023/06/30 01:46:44;;;;;;;4.20;1.70;;;;;;;16.29;100.00;100636.91;5017039;28;20021;-73
2023/06/30 01:49:11;;;;;;;14.55;2.10;;;;;;;16.18;100.00;100632.13;4998842;28;20479;-73
2023/06/30 01:51:38;;;;;;;8.27;2.45;;;;;;;16.20;100.00;100640.78;4979486;28;20430;-74
2023/06/30 01:54:03;;;;;;;9.00;2.30;;;;;;;16.17;100.00;100635.81;5005709;28;20030;-73
2023/06/30 01:56:28;;;;;;;5.23;2.17;;;;;;;16.15;100.00;100644.09;4995633;28;20025;-73
2023/06/30 01:58:54;;;;;;;5.60;2.57;;;;;;;16.11;100.00;100644.69;4982590;28;20899;-73
2023/06/30 02:01:19;;;;;;;9.73;2.60;;;;;;;16.19;100.00;100652.63;4983828;28;20022;-73
2023/06/30 02:03:45;;;;;;;5.70;2.40;;;;;;;16.10;100.00;100662.72;5002943;28;20404;-73
2023/06/30 02:06:10;;;;;;;10.00;2.80;;;;;;;16.07;100.00;100654.22;5011789;28;20116;-73
2023/06/30 02:08:35;;;;;;;6.40;2.63;;;;;;;16.06;100.00;100663.31;5001292;28;20038;-73
2023/06/30 02:11:01;;;;;;;7.50;2.40;;;;;;;15.98;100.00;100665.16;5017522;28;20025;-73
2023/06/30 02:13:26;;;;;;;7.23;2.50;;;;;;;16.07;100.00;100657.75;4997074;28;20044;-73
2023/06/30 02:15:51;;;;;;;7.10;2.40;;;;;;;16.08;100.00;100650.50;5015601;28;20064;-74
2023/06/30 02:18:17;;;;;;;7.63;1.93;;;;;;;16.06;100.00;100649.88;5019157;28;20026;-73
2023/06/30 02:20:42;;;;;;;8.40;2.33;;;;;;;16.06;100.00;100650.72;4982348;28;20034;-73
2023/06/30 02:23:07;;;;;;;6.27;2.33;;;;;;;16.07;100.00;100652.38;5010974;28;20436;-73
2023/06/30 02:25:36;;;;;;;4.83;2.23;;;;;;;16.06;100.00;100656.09;5015081;28;20112;-73
2023/06/30 02:28:01;;;;;;;9.02;3.50;;;;;;;16.01;100.00;100647.78;5015945;28;20060;-73
2023/06/30 02:30:27;;;;;;;6.87;2.23;;;;;;;15.97;100.00;100652.75;5018414;28;20061;-74
2023/06/30 02:32:53;;;;;;;11.00;2.50;;;;;;;15.94;100.00;100652.28;5017748;28;20044;-73
2023/06/30 02:35:18;;;;;;;13.35;3.65;;;;;;;15.98;100.00;100648.19;5010660;28;20680;-74
2023/06/30 02:37:44;;;;;;;7.90;2.88;;;;;;;15.94;100.00;100646.91;5011259;28;20076;-73
2023/06/30 02:40:09;;;;;;;8.47;3.00;;;;;;;15.98;100.00;100653.56;5015903;28;20029;-73
2023/06/30 02:42:35;;;;;;;6.70;2.63;;;;;;;15.97;100.00;100643.84;4994882;28;20472;-73
2023/06/30 02:45:00;;;;;;;15.30;2.73;;;;;;;15.99;100.00;100639.91;5011985;28;20037;-73
2023/06/30 02:47:26;;;;;;;8.52;2.90;;;;;;;15.99;100.00;100633.66;5014866;28;20395;-74
2023/06/30 02:49:52;;;;;;;5.15;2.70;;;;;;;15.93;100.00;100629.94;5017758;28;20486;-73
2023/06/30 02:52:17;;;;;;;11.07;2.30;;;;;;;15.88;100.00;100626.19;5017936;28;20033;-74
2023/06/30 02:54:43;;;;;;;9.63;2.25;;;;;;;15.94;100.00;100626.19;4980971;28;20269;-73
2023/06/30 02:57:09;;;;;;;8.73;2.50;;;;;;;15.93;100.00;100618.34;5018018;28;20514;-74
2023/06/30 02:59:34;;;;;;;10.20;2.57;;;;;;;15.93;100.00;100615.66;5021431;28;20374;-74
2023/06/30 03:02:02;;;;;;;17.63;3.03;;;;;;;15.92;100.00;100617.53;5018626;28;20420;-73
2023/06/30 03:04:28;;;;;;;7.28;2.63;;;;;;;15.90;100.00;100614.19;4987887;28;20037;-74
2023/06/30 03:06:54;;;;;;;7.78;3.38;;;;;;;15.91;100.00;100623.09;5001300;28;20486;-73
2023/06/30 03:09:19;;;;;;;9.00;2.70;;;;;;;15.87;100.00;100619.94;5019987;28;20041;-73
2023/06/30 03:11:45;;;;;;;7.77;3.53;;;;;;;15.81;100.00;100626.16;5021875;28;20033;-73
2023/06/30 03:14:11;;;;;;;13.52;2.67;;;;;;;15.89;100.00;100641.31;5019334;28;20380;-73
2023/06/30 03:16:42;;;;;;;10.43;3.15;;;;;;;15.85;100.00;100638.19;5021875;28;20037;-74
2023/06/30 03:19:07;;;;;;;14.00;3.72;;;;;;;15.75;100.00;100645.78;5017142;28;20125;-73
2023/06/30 03:21:34;;;;;;;6.60;3.05;;;;;;;15.81;100.00;100642.31;5019216;28;20121;-73
2023/06/30 03:24:00;;;;;;;6.10;2.77;;;;;;;15.87;100.00;100646.88;4984829;28;20117;-74
2023/06/30 03:26:28;;;;;;;;;;;;;;;15.82;100.00;100643.97;5003225;28;20588;-73
2023/06/30 03:28:53;;;;;;;8.75;2.63;;;;;;;15.81;100.00;100645.00;5019474;28;20353;-73
2023/06/30 03:31:19;;;;;;;12.33;4.27;;;;;;;15.86;100.00;100644.41;5002033;28;20042;-73
2023/06/30 03:33:45;;;;;;;10.85;3.00;;;;;;;15.73;100.00;100645.16;5000316;28;20498;-73
2023/06/30 03:36:11;;;;;;;6.07;2.67;;;;;;;15.73;100.00;100645.16;5019087;28;20026;-74
2023/06/30 03:38:36;;;;;;;6.70;2.37;;;;;;;15.78;100.00;100640.00;5022380;28;20041;-73
2023/06/30 03:41:01;;;;;;;7.67;2.90;;;;;;;15.85;100.00;100642.72;5018140;28;20123;-73
2023/06/30 03:43:28;;;;;;;9.48;2.88;;;;;;;15.89;100.00;100650.19;4986901;28;20460;-74
2023/06/30 03:45:53;;;;;;;8.33;2.17;;;;;;;15.91;100.00;100653.53;5015349;28;20109;-73
2023/06/30 03:48:20;;;;;;;15.75;3.20;;;;;;;15.85;100.00;100653.50;5019141;28;20059;-73
2023/06/30 03:50:48;;;;;;;9.88;2.83;;;;;;;15.73;100.00;100640.63;5001953;28;20026;-73
2023/06/30 03:53:13;;;;;;;9.63;3.40;;;;;;;15.84;100.00;100647.28;5002729;28;20258;-74
2023/06/30 03:55:38;;;;;;;4.87;2.23;;;;;;;15.86;100.00;100649.78;5020380;28;20029;-74
2023/06/30 03:58:04;;;;;;;11.17;2.67;;;;;;;15.88;100.00;100647.72;5018810;28;20105;-73
2023/06/30 04:00:31;;;;;;;7.17;2.67;;;;;;;15.80;100.00;100646.88;5002901;28;20033;-74
2023/06/30 04:02:57;;;;;;;9.25;3.13;;;;;;;15.78;100.00;100640.84;5019503;28;20087;-73
2023/06/30 04:05:22;;;;;;;4.82;2.45;;;;;;;15.87;100.00;100641.50;5019022;28;20026;-73
2023/06/30 04:07:48;;;;;;;11.60;3.17;;;;;;;15.83;100.00;100629.47;5013692;28;20132;-74
2023/06/30 04:10:13;;;;;;;10.13;2.20;;;;;;;15.83;100.00;100618.72;5021609;28;20320;-73
2023/06/30 04:12:38;;;;;;;7.43;1.57;;;;;;;15.84;100.00;100617.66;5020282;28;20080;-74
2023/06/30 04:15:07;;;;;;;7.97;2.30;;;;;;;15.74;100.00;100593.00;5016486;28;20111;-73
2023/06/30 04:17:32;;;;;;;10.27;2.20;;;;;;;15.78;100.00;100596.94;5020409;28;20121;-74
2023/06/30 04:19:58;;;;;;;8.47;2.13;;;;;;;15.78;100.00;100605.84;5012758;28;20113;-74
2023/06/30 04:22:23;;;;;;;7.30;2.90;;;;;;;15.83;100.00;100600.69;5020252;28;20442;-74
2023/06/30 04:24:48;;;;;;;10.33;2.53;;;;;;;15.91;100.00;100602.38;5019120;28;20071;-73
2023/06/30 04:27:14;;;;;;;7.87;1.77;;;;;;;15.94;100.00;100604.66;5019755;28;20498;-74
2023/06/30 04:29:39;;;;;;;9.43;1.97;;;;;;;15.97;100.00;100601.59;5003375;28;20112;-74
2023/06/30 04:32:05;;;;;;;8.00;2.00;;;;;;;15.90;100.00;100586.44;5019398;28;20037;-74
2023/06/30 04:34:30;;;;;;;10.77;1.80;;;;;;;15.98;100.00;100588.94;5020429;28;20095;-74
2023/06/30 04:36:56;;;;;;;7.70;1.80;;;;;;;15.98;100.00;100586.25;5018629;28;20625;-74
2023/06/30 04:39:22;;;;;;;7.45;2.08;;;;;;;16.02;100.00;100595.59;5001809;28;20030;-74
2023/06/30 04:41:47;;;;;;;10.60;2.15;;;;;;;15.87;100.00;100566.13;5020935;28;20462;-74
2023/06/30 04:44:12;;;;;;;11.57;2.17;;;;;;;15.87;100.00;100560.72;5015148;28;20033;-73
2023/06/30 04:46:38;;;;;;;10.43;2.00;;;;;;;15.89;100.00;100547.91;5019002;28;20046;-74
2023/06/30 04:49:04;;;;;;;6.13;2.17;;;;;;;15.81;100.00;100529.25;5016833;28;20065;-74
2023/06/30 04:51:30;;;;;;;9.35;1.92;;;;;;;15.80;100.00;100527.56;5020826;28;20084;-74
2023/06/30 04:53:55;;;;;;;3.22;1.23;;;;;;;15.76;100.00;100542.50;5017517;28;20049;-74
2023/06/30 04:56:20;;;;;;;5.60;1.50;;;;;;;15.74;100.00;100540.00;5018840;28;20390;-74
2023/06/30 04:58:49;;;;;;;6.23;2.60;;;;;;;15.74;100.00;100547.25;5003511;28;20037;-73
2023/06/30 05:01:14;;;;;;;10.63;3.10;;;;;;;15.86;100.00;100552.88;5018530;28;20094;-74
2023/06/30 05:03:40;;;;;;;6.93;1.47;;;;;;;16.03;100.00;100556.84;5003434;28;20041;-74
2023/06/30 05:06:05;;;;;;;7.23;1.67;;;;;;;16.13;100.00;100554.63;4998696;28;20053;-73
2023/06/30 05:08:30;;;;;;;9.00;1.53;;;;;;;15.95;100.00;100509.41;5016164;28;20029;-73
2023/06/30 05:10:56;;;;;;;10.00;1.47;;;;;;;15.95;100.00;100500.50;5018575;28;20026;-73
2023/06/30 05:13:21;;;;;;;5.97;1.30;;;;;;;15.93;100.00;100489.13;4983919;28;20254;-74
2023/06/30 05:15:47;;;;;;;3.30;1.00;;;;;;;16.14;100.00;100488.13;5016602;28;20037;-74
2023/06/30 05:18:14;;;;;;;5.57;1.20;;;;;;;15.89;100.00;100444.78;5000497;28;20033;-73
2023/06/30 05:20:39;;;;;;;4.53;1.35;;;;;;;16.04;100.00;100450.81;4983447;28;20089;-74
2023/06/30 05:23:05;;;;;;;6.63;1.75;;;;;;;16.30;100.00;100450.00;4998054;28;20030;-74
2023/06/30 05:25:30;;;;;;;9.40;1.77;;;;;;;16.37;100.00;100415.00;5001266;28;20033;-73
2023/06/30 05:27:55;;;;;;;3.13;1.10;;;;;;;16.45;100.00;100391.31;5018188;28;20174;-73
2023/06/30 05:30:21;;;;;;;8.27;1.30;;;;;;;16.55;100.00;100380.13;5019492;28;20168;-74
2023/06/30 05:32:46;;;;;;;5.73;1.00;;;;;;;16.65;100.00;100412.88;4999168;28;20116;-74
2023/06/30 05:35:11;;;;;;;7.20;1.40;;;;;;;16.51;100.00;100343.88;5012526;28;20030;-74
2023/06/30 05:37:37;;;;;;;4.67;0.80;;;;;;;16.43;100.00;100336.00;5021334;28;20025;-74
2023/06/30 05:40:03;;;;;;;4.30;1.23;;;;;;;16.43;100.00;100291.00;5017722;28;20071;-74
2023/06/30 05:42:28;;;;;;;2.83;0.80;;;;;;;16.49;100.00;100337.84;5019229;28;20033;-74
2023/06/30 05:44:54;;;;;;;6.67;1.63;;;;;;;16.51;100.00;100308.03;5018129;28;20029;-74
2023/06/30 05:47:20;;;;;;;8.75;1.27;;;;;;;16.73;100.00;100325.53;5009139;28;20693;-73
2023/06/30 05:49:45;;;;;;;4.80;0.97;;;;;;;17.08;100.00;100307.16;5016307;28;20049;-73
2023/06/30 05:52:10;;;;;;;3.73;1.03;;;;;;;17.06;100.00;100251.78;4980232;28;20029;-73
2023/06/30 05:54:36;;;;;;;3.77;1.10;;;;;;;17.17;100.00;100259.19;5003683;28;20040;-74
2023/06/30 05:57:01;;;;;;;2.53;0.93;;;;;;;17.19;100.00;100230.13;4992644;28;20030;-73
2023/06/30 05:59:28;;;;;;;3.90;1.37;;;;;;;17.16;100.00;100149.66;5014324;28;20125;-74
2023/06/30 06:01:54;;;;;;;4.05;1.08;;;;;;;17.11;100.00;100162.13;5009023;28;20443;-73
2023/06/30 06:04:20;;;;;;;3.58;0.90;;;;;;;16.68;100.00;100099.78;4999698;28;20033;-73
2023/06/30 06:06:45;;;;;;;6.97;1.10;;;;;;;16.58;100.00;100136.34;5018392;28;20029;-74
2023/06/30 06:09:10;;;;;;;4.13;1.23;;;;;;;16.45;100.00;100178.47;5016443;28;20117;-74
2023/06/30 06:11:36;;;;;;;11.60;3.10;;;;;;;16.39;100.00;100214.38;5019183;28;20378;-74
2023/06/30 06:14:01;;;;;;;5.70;1.00;;;;;;;16.40;100.00;100274.47;5017196;28;20039;-74
2023/06/30 06:16:26;;;;;;;5.53;1.33;;;;;;;16.35;100.00;100240.06;5015007;28;20065;-73
2023/06/30 06:18:52;;;;;;;4.40;1.17;;;;;;;16.51;100.00;100330.41;5017745;28;20087;-74
2023/06/30 06:21:17;;;;;;;6.07;1.20;;;;;;;16.61;100.00;100311.09;4982405;28;20030;-74
2023/06/30 06:23:43;;;;;;;4.85;1.02;;;;;;;16.64;100.00;100291.78;5018986;28;20033;-74
2023/06/30 06:26:08;;;;;;;7.17;1.33;;;;;;;16.65;100.00;100271.91;5015899;28;20026;-74
2023/06/30 06:28:34;;;;;;;2.80;1.10;;;;;;;16.69;100.00;100278.50;5018300;28;20341;-74
2023/06/30 06:30:59;;;;;;;2.03;1.10;;;;;;;16.70;100.00;100290.94;5016334;28;20029;-74
2023/06/30 06:33:25;;;;;;;3.67;1.00;;;;;;;16.76;100.00;100332.38;4999337;28;20038;-74
2023/06/30 06:35:51;;;;;;;3.93;1.00;;;;;;;16.66;100.00;100273.53;5017826;28;20021;-74
2023/06/30 06:38:17;;;;;;;4.20;1.17;;;;;;;16.82;100.00;100318.91;5012031;28;20097;-74
2023/06/30 06:40:44;;;;;;;1.30;1.10;;;;;;;16.72;100.00;100315.81;5014056;28;20506;-73
2023/06/30 06:43:09;;;;;;;5.95;1.10;;;;;;;16.88;100.00;100261.44;5013646;28;20034;-74
2023/06/30 06:45:35;;;;;;;4.27;1.10;;;;;;;16.84;100.00;100206.28;5020063;28;20029;-74
2023/06/30 06:48:23;;;;;;;4.97;1.00;;;;;;;16.77;100.00;100274.75;5011905;28;20088;-74
2023/06/30 06:50:51;;;;;;;9.20;1.77;;;;;;;16.68;100.00;100248.03;5014082;28;20108;-74
2023/06/30 06:53:25;;;;;;;3.78;1.33;;;;;;;16.73;100.00;100322.84;5015268;28;20210;-73
2023/06/30 06:55:52;;;;;;;5.75;1.42;;;;;;;16.79;100.00;100338.22;5015272;28;20029;-73
2023/06/30 06:58:18;;;;;;;3.08;1.10;;;;;;;16.98;100.00;100357.22;5016676;28;20663;-74
2023/06/30 07:00:45;;;;;;;5.50;1.42;;;;;;;16.93;100.00;100339.00;5017297;28;20033;-73
2023/06/30 07:03:11;;;;;;;3.55;1.02;;;;;;;16.57;100.00;100290.97;4997931;28;20022;-73
2023/06/30 07:05:39;;;;;;;8.05;1.75;;;;;;;16.73;100.00;100303.97;4999766;28;20246;-73
2023/06/30 07:08:05;;;;;;;5.13;1.35;;;;;;;16.96;100.00;100332.34;5015804;28;20018;-73
2023/06/30 07:10:33;;;;;;;6.18;1.25;;;;;;;16.94;100.00;100242.75;5018539;28;20037;-73
2023/06/30 07:12:59;;;;;;;3.05;1.10;;;;;;;16.88;100.00;100221.00;5016280;28;20036;-73
2023/06/30 07:15:25;;;;;;;6.18;1.35;;;;;;;16.83;100.00;100237.00;5014606;28;20038;-73
2023/06/30 07:17:50;;;;;;;7.20;1.55;;;;;;;16.76;100.00;100246.94;5001298;28;20035;-74
2023/06/30 07:20:16;;;;;;;5.13;2.07;;;;;;;16.75;100.00;100309.16;5017226;28;20037;-74
2023/06/30 07:22:41;;;;;;;6.18;1.10;;;;;;;16.82;100.00;100300.03;5019810;28;20537;-74
2023/06/30 07:25:07;;;;;;;5.87;1.47;;;;;;;16.93;100.00;100325.50;5013683;28;20041;-74
2023/06/30 07:27:36;;;;;;;5.85;1.10;;;;;;;17.21;100.00;100249.63;5017836;28;20100;-73
2023/06/30 07:30:01;;;;;;;4.80;1.48;;;;;;;17.37;100.00;100223.13;4997679;28;20144;-74
2023/06/30 07:32:27;;;;;;;5.40;1.37;;;;;;;17.45;100.00;100309.22;4983361;28;20526;-74
2023/06/30 07:34:52;;;;;;;3.97;1.20;;;;;;;17.25;100.00;100339.03;4994187;28;20037;-74
2023/06/30 07:37:17;;;;;;;5.03;1.47;;;;;;;17.20;100.00;100220.16;5016057;28;20037;-74
2023/06/30 07:39:43;;;;;;;5.00;1.60;;;;;;;17.16;100.00;100262.09;5017731;28;20220;-73
2023/06/30 07:42:08;;;;;;;7.30;2.40;;;;;;;17.11;100.00;100141.38;5015876;28;20022;-74
2023/06/30 07:44:33;;;;;;;9.83;2.07;;;;;;;17.13;100.00;100147.38;5023061;28;20037;-74
2023/06/30 07:46:59;;;;;;;6.90;1.43;;;;;;;17.12;100.00;100000.09;5020082;28;20494;-74
2023/06/30 07:49:25;;;;;;;4.30;2.07;;;;;;;17.43;100.00;100157.50;5019781;28;20034;-74
2023/06/30 07:51:51;;;;;;;7.03;1.67;;;;;;;17.97;100.00;100023.59;5001196;28;20084;-74
2023/06/30 07:54:17;;;;;;;6.68;1.48;;;;;;;18.18;100.00;100054.69;5020495;28;20030;-74
2023/06/30 07:56:42;;;;;;;5.30;1.33;;;;;;;19.19;100.00;100038.53;5023109;28;20479;-74
2023/06/30 07:59:07;;;;;;;10.60;1.63;;;;;;;19.80;100.00;99936.94;5018998;28;20040;-74
2023/06/30 08:01:33;;;;;;;6.63;1.70;;;;;;;20.36;100.00;99732.97;5022044;28;20603;-74
2023/06/30 08:03:58;;;;;;;5.63;1.57;;;;;;;21.58;100.00;99786.97;5017996;28;20064;-74
2023/06/30 08:06:25;;;;;;;4.73;1.30;;;;;;;22.24;95.38;99586.31;5018346;28;20458;-74
2023/06/30 08:08:50;;;;;;;6.38;1.58;;;;;;;20.93;88.96;99153.91;5020264;28;20112;-75
2023/06/30 08:11:18;;;;;;;3.67;1.17;;;;;;;20.79;90.28;99389.56;5019905;28;20303;-73
2023/06/30 08:13:44;;;;;;;6.03;1.67;;;;;;;20.86;88.52;99349.47;5021166;28;20064;-74
2023/06/30 08:16:09;;;;;;;5.90;1.37;;;;;;;21.97;88.41;99610.91;5017871;28;20038;-76
2023/06/30 08:18:35;;;;;;;6.00;1.75;;;;;;;22.42;84.51;99475.41;5022619;28;20112;-76
2023/06/30 08:21:01;;;;;;;4.37;1.23;;;;;;;22.11;80.96;99220.69;5019268;28;20494;-76
2023/06/30 08:23:27;;;;;;;4.72;1.90;;;;;;;22.30;80.15;99299.75;4986425;28;20038;-76
2023/06/30 08:25:54;;;;;;;4.97;1.50;;;;;;;22.36;78.98;99280.72;5019060;28;20029;-76
2023/06/30 08:28:20;;;;;;;5.18;1.38;;;;;;;22.73;79.44;99438.09;5019659;28;20033;-76
2023/06/30 08:30:45;;;;;;;3.60;1.23;;;;;;;23.12;76.85;99348.50;5021173;28;20123;-76
2023/06/30 08:33:11;;;;;;;4.65;2.17;;;;;;;21.68;77.73;99195.78;5006705;28;20118;-76
2023/06/30 08:35:36;;;;;;;4.07;1.10;;;;;;;21.45;76.94;99161.84;5000486;28;20048;-73
2023/06/30 08:38:01;;;;;;;3.17;1.27;;;;;;;21.84;78.08;99400.28;5002065;28;20033;-74
2023/06/30 08:40:31;;;;;;;4.40;1.47;;;;;;;21.09;76.74;99117.56;5019114;28;20022;-73
2023/06/30 08:43:09;;;;;;;2.75;1.60;;;;;;;20.37;80.43;99360.53;5020419;28;20124;-73
2023/06/30 08:45:34;;;;;;;8.45;1.80;;;;;;;19.53;82.31;99341.16;5021284;28;20041;-73
2023/06/30 08:48:04;;;;;;;3.10;1.50;;;;;;;19.30;87.13;99707.56;5018679;28;20422;-73
2023/06/30 08:50:31;;;;;;;4.47;1.80;;;;;;;20.66;85.44;99885.22;5018743;28;20545;-73
2023/06/30 08:52:58;;;;;;;6.75;1.90;;;;;;;21.06;84.22;99820.88;5017166;28;20025;-73
2023/06/30 08:55:23;;;;;;;5.05;1.80;;;;;;;22.37;81.04;99832.41;5019488;28;20040;-73
2023/06/30 08:57:49;;;;;;;6.73;1.80;;;;;;;21.73;78.23;99441.28;5019059;28;20449;-73
2023/06/30 09:00:15;;;;;;;6.65;2.22;;;;;;;21.71;76.61;99369.03;5017481;28;20034;-73
2023/06/30 09:02:42;;;;;;;6.75;1.42;;;;;;;23.23;73.85;99495.47;5019854;28;20029;-73
2023/06/30 09:05:08;;;;;;;5.15;1.73;;;;;;;22.77;72.40;99241.41;4997285;28;20038;-74
2023/06/30 09:07:41;;;;;;;8.45;1.98;;;;;;;22.16;74.37;99314.97;5018200;28;20033;-73
2023/06/30 09:10:09;;;;;;;4.53;1.40;;;;;;;21.51;75.02;99284.81;5017098;28;20030;-73
2023/06/30 09:12:36;;;;;;;7.43;1.85;;;;;;;20.42;76.20;99233.22;5020434;28;20270;-73
2023/06/30 09:15:02;;;;;;;6.88;2.42;;;;;;;21.54;77.26;99648.16;5016318;28;20067;-73
2023/06/30 09:17:28;;;;;;;7.50;2.00;;;;;;;22.72;71.60;99410.09;5019042;28;20025;-73
2023/06/30 09:19:53;;;;;;;6.93;1.38;;;;;;;23.51;68.84;99345.03;5017243;28;20294;-73
2023/06/30 09:22:21;;;;;;;4.60;1.27;;;;;;;23.46;67.63;99249.75;5019197;28;20467;-74
2023/06/30 09:24:48;;;;;;;3.35;1.50;;;;;;;24.28;65.47;99270.00;5018187;28;20288;-76
2023/06/30 09:27:13;;;;;;;8.07;1.80;;;;;;;25.06;64.03;99324.22;5014688;28;20026;-74
2023/06/30 09:29:39;;;;;;;10.10;1.75;;;;;;;24.02;65.29;99126.63;5021381;28;20410;-74
2023/06/30 09:32:05;;;;;;;5.95;1.70;;;;;;;22.05;67.18;98912.00;5016779;28;20232;-73
2023/06/30 09:34:30;;;;;;;5.82;1.60;;;;;;;21.78;70.79;99322.63;5019408;28;20041;-74
2023/06/30 09:36:56;;;;;;;6.22;2.00;;;;;;;22.33;69.45;99379.97;5017263;28;20112;-74
2023/06/30 09:39:22;;;;;;;6.30;1.77;;;;;;;22.94;68.62;99434.28;5000548;28;20124;-74
2023/06/30 09:41:49;;;;;;;6.43;1.42;;;;;;;23.46;65.91;99330.59;5017651;28;20064;-74
2023/06/30 09:44:17;;;;;;;10.25;2.55;;;;;;;24.29;65.25;99414.25;5014725;28;20088;-75
2023/06/30 09:46:50;;;;;;;2.78;1.30;;;;;;;24.48;61.27;99001.69;5018786;28;20113;-74
2023/06/30 09:49:26;;;;;;;4.13;1.60;;;;;;;23.88;61.30;98863.25;5017622;28;20071;-74
2023/06/30 09:51:54;;;;;;;4.13;2.17;;;;;;;22.83;64.62;99010.13;5018365;28;20037;-74
2023/06/30 09:54:20;;;;;;;6.63;1.63;;;;;;;22.17;67.15;99163.59;5016523;28;20372;-74
2023/06/30 09:56:45;;;;;;;5.53;1.63;;;;;;;23.29;64.81;99263.72;5019052;28;20040;-74
2023/06/30 09:59:12;;;;;;;7.45;1.85;;;;;;;22.64;62.12;98738.88;4999263;28;20037;-74
2023/06/30 10:01:37;;;;;;;;;;;;;;;23.71;60.15;98912.78;5019387;28;20579;-74
2023/06/30 10:04:02;;;;;;;4.80;1.80;;;;;;;24.24;60.42;99114.34;5014923;28;19972;-74
2023/06/30 10:06:28;;;;;;;3.17;1.30;;;;;;;25.66;58.47;99271.75;4984800;28;20034;-74
2023/06/30 10:08:57;;;;;;;4.85;1.52;;;;;;;26.22;55.04;98974.59;5018291;28;20036;-74
2023/06/30 10:11:23;;;;;;;3.83;1.10;;;;;;;26.08;53.20;98709.41;5015511;28;20048;-74
2023/06/30 10:13:54;;;;;;;4.93;1.33;;;;;;;26.56;53.61;98915.81;4992633;28;20644;-74
2023/06/30 10:16:23;;;;;;;4.22;1.40;;;;;;;26.16;52.74;98734.38;5008147;28;20034;-74
2023/06/30 10:18:49;;;;;;;3.10;1.13;;;;;;;26.22;52.10;98731.19;5010828;28;20083;-74
2023/06/30 10:21:15;;;;;;;6.88;1.50;;;;;;;26.62;51.48;98772.25;4997120;28;20142;-73
2023/06/30 10:23:42;;;;;;;5.68;1.40;;;;;;;26.51;51.39;98729.84;4993024;28;20018;-74
2023/06/30 10:26:09;;;;;;;3.60;1.50;;;;;;;25.78;52.14;98617.25;4992132;28;20045;-74
2023/06/30 10:28:35;;;;;;;4.47;1.33;;;;;;;24.25;54.32;98513.41;4996630;28;20061;-74
2023/06/30 10:31:02;;;;;;;3.85;1.50;;;;;;;24.98;54.60;98819.03;4998408;28;20037;-74
2023/06/30 10:33:27;;;;;;;3.05;1.30;;;;;;;25.84;52.11;98728.06;5007305;28;20487;-74
2023/06/30 10:35:54;;;;;;;2.17;1.38;;;;;;;25.06;51.11;98291.50;5006326;28;20041;-74
2023/06/30 10:38:20;;;;;;;4.00;1.75;;;;;;;25.02;51.55;98432.44;5011325;28;20030;-74
2023/06/30 10:40:46;;;;;;;3.03;1.20;;;;;;;25.12;51.35;98454.00;5006293;28;20065;-74
2023/06/30 10:43:13;;;;;;;4.80;1.38;;;;;;;25.36;51.39;98573.03;5000456;28;20102;-74
2023/06/30 10:46:07;;;;;;;7.05;1.67;;;;;;;26.32;50.52;98779.34;5003717;28;20076;-74
2023/06/30 10:48:32;;;;;;;4.90;1.67;;;;;;;25.20;51.16;98499.69;5002350;28;20045;-75
2023/06/30 10:50:58;;;;;;;5.85;1.40;;;;;;;24.84;53.23;98721.63;5005753;28;20121;-73
2023/06/30 10:53:26;;;;;;;5.80;1.52;;;;;;;23.91;54.75;98667.28;4994620;28;20069;-74
2023/06/30 10:55:58;;;;;;;4.95;1.30;;;;;;;25.40;54.00;99038.34;4996891;28;20058;-74
2023/06/30 10:58:26;;;;;;;5.97;1.90;;;;;;;26.15;50.99;98818.31;4996852;28;20650;-74
2023/06/30 11:01:03;;;;;;;4.65;1.55;;;;;;;25.12;51.66;98533.16;4987475;28;20018;-74
2023/06/30 11:03:57;;;;;;;3.95;1.52;;;;;;;25.21;52.59;98719.72;4987567;28;20042;-74
2023/06/30 11:06:24;;;;;;;2.22;1.55;;;;;;;25.19;50.86;98454.41;4989531;28;20377;-73
2023/06/30 11:09:00;;;;;;;2.97;1.20;;;;;;;25.66;49.94;98552.25;4996937;28;20025;-74
2023/06/30 11:11:27;;;;;;;4.10;1.65;;;;;;;25.97;49.34;98554.19;4989009;28;20076;-73
2023/06/30 11:14:06;;;;;;;4.55;1.42;;;;;;;25.55;50.00;98505.31;5003955;28;20026;-74
2023/06/30 11:17:04;;;;;;;3.67;1.42;;;;;;;25.43;50.45;98555.06;4991574;28;20398;-73
2023/06/30 11:19:29;;;;;;;3.97;1.20;;;;;;;24.88;51.07;98508.16;5010634;28;20049;-74